Antioch, California
Current Conditions -  °F | °C
As of 11:53 AM on Thursday 27 Nov 2014 (Local Time) from KCCR Reporting Station
Scattered Clouds Scattered Clouds  
Wind Chill: 18°   Ceiling: Unl
Heat Index: 18°   Visibility: 7mi
Dew Point:   Wind: 5mph
Humidity: 58%   Direction: NA
Pressure: 30.16"   Gusts: NA
Location:  38.02°N, 121.81°W
Report Text: KCCR 271953Z VRB04KT 7SM SCT200 18/09 A3016 RMK AO2 SLP198 T01780094
Loading
Personal Weather Stations






























Interactive Weather Map New forecast layout! Learn more

10-Day Weather Forecast

Advertisements
Track Severe Weather on mobile